sensor_id;sensor_type;location;lat;lon;timestamp;pressure;altitude;pressure_sealevel;temperature;humidity
6829;BME280;17930;48.592;8.868;2023-03-03T00:01:02;96947.22;;;0.85;100.00
6829;BME280;17930;48.592;8.868;2023-03-03T00:03:29;96952.34;;;0.85;100.00
6829;BME280;17930;48.592;8.868;2023-03-03T00:05:56;96951.22;;;0.81;100.00
6829;BME280;17930;48.592;8.868;2023-03-03T00:08:25;96952.97;;;0.80;100.00
6829;BME280;17930;48.592;8.868;2023-03-03T00:10:52;96954.34;;;0.83;100.00
6829;BME280;17930;48.592;8.868;2023-03-03T00:13:21;96955.13;;;0.83;100.00
6829;BME280;17930;48.592;8.868;2023-03-03T00:15:49;96952.75;;;0.82;100.00
6829;BME280;17930;48.592;8.868;2023-03-03T00:18:22;96959.66;;;0.88;100.00
6829;BME280;17930;48.592;8.868;2023-03-03T00:20:53;96962.56;;;0.98;100.00
6829;BME280;17930;48.592;8.868;2023-03-03T00:23:27;96960.22;;;0.96;100.00
6829;BME280;17930;48.592;8.868;2023-03-03T00:25:57;96951.91;;;0.94;100.00
6829;BME280;17930;48.592;8.868;2023-03-03T00:28:26;96959.41;;;0.96;100.00
6829;BME280;17930;48.592;8.868;2023-03-03T00:30:54;96962.16;;;1.01;100.00
6829;BME280;17930;48.592;8.868;2023-03-03T00:33:28;96955.25;;;1.25;100.00
6829;BME280;17930;48.592;8.868;2023-03-03T00:36:04;96960.06;;;1.15;100.00
6829;BME280;17930;48.592;8.868;2023-03-03T00:38:36;96961.91;;;1.33;100.00
6829;BME280;17930;48.592;8.868;2023-03-03T00:41:10;96959.97;;;1.28;100.00
6829;BME280;17930;48.592;8.868;2023-03-03T00:43:41;96959.22;;;1.21;100.00
6829;BME280;17930;48.592;8.868;2023-03-03T00:46:08;96964.66;;;1.62;100.00
6829;BME280;17930;48.592;8.868;2023-03-03T00:48:41;96960.69;;;1.42;100.00
6829;BME280;17930;48.592;8.868;2023-03-03T00:51:19;96960.78;;;1.29;100.00
6829;BME280;17930;48.592;8.868;2023-03-03T00:53:52;96953.16;;;1.16;100.00
6829;BME280;17930;48.592;8.868;2023-03-03T00:56:19;96948.88;;;1.34;100.00
6829;BME280;17930;48.592;8.868;2023-03-03T00:58:45;96950.38;;;1.17;100.00
6829;BME280;17930;48.592;8.868;2023-03-03T01:01:12;96955.31;;;0.88;100.00
6829;BME280;17930;48.592;8.868;2023-03-03T01:03:40;96951.75;;;0.89;100.00
6829;BME280;17930;48.592;8.868;2023-03-03T01:06:07;96955.13;;;0.83;100.00
6829;BME280;17930;48.592;8.868;2023-03-03T01:08:34;96956.22;;;0.63;100.00
6829;BME280;17930;48.592;8.868;2023-03-03T01:11:06;96962.31;;;0.68;100.00
6829;BME280;17930;48.592;8.868;2023-03-03T01:13:35;96960.47;;;0.38;100.00
6829;BME280;17930;48.592;8.868;2023-03-03T01:16:03;96962.16;;;0.13;100.00
6829;BME280;17930;48.592;8.868;2023-03-03T01:18:30;96959.38;;;0.08;100.00
6829;BME280;17930;48.592;8.868;2023-03-03T01:20:57;96961.78;;;-0.03;100.00
6829;BME280;17930;48.592;8.868;2023-03-03T01:23:24;96970.50;;;-0.17;100.00
6829;BME280;17930;48.592;8.868;2023-03-03T01:25:50;96968.94;;;-0.31;100.00
6829;BME280;17930;48.592;8.868;2023-03-03T01:28:18;96965.78;;;-0.39;100.00
6829;BME280;17930;48.592;8.868;2023-03-03T01:30:45;96964.41;;;-0.42;100.00
6829;BME280;17930;48.592;8.868;2023-03-03T01:33:12;96963.81;;;-0.50;100.00
6829;BME280;17930;48.592;8.868;2023-03-03T01:35:42;96956.91;;;-0.62;100.00
6829;BME280;17930;48.592;8.868;2023-03-03T01:38:28;96951.59;;;-0.61;100.00
6829;BME280;17930;48.592;8.868;2023-03-03T01:40:57;96959.91;;;-0.72;100.00
6829;BME280;17930;48.592;8.868;2023-03-03T01:43:27;96959.66;;;-0.90;100.00
6829;BME280;17930;48.592;8.868;2023-03-03T01:46:28;96963.81;;;-1.02;100.00
6829;BME280;17930;48.592;8.868;2023-03-03T01:48:59;96964.16;;;-1.11;100.00
6829;BME280;17930;48.592;8.868;2023-03-03T01:51:36;96960.63;;;-1.23;100.00
6829;BME280;17930;48.592;8.868;2023-03-03T01:54:10;96957.81;;;-1.34;100.00
6829;BME280;17930;48.592;8.868;2023-03-03T01:56:49;96956.59;;;-1.45;100.00
6829;BME280;17930;48.592;8.868;2023-03-03T01:59:22;96958.56;;;-1.40;100.00
6829;BME280;17930;48.592;8.868;2023-03-03T02:01:51;96955.81;;;-1.45;100.00
6829;BME280;17930;48.592;8.868;2023-03-03T02:04:19;96953.47;;;-1.40;100.00
6829;BME280;17930;48.592;8.868;2023-03-03T02:06:49;96961.75;;;-1.38;100.00
6829;BME280;17930;48.592;8.868;2023-03-03T02:09:22;96953.03;;;-1.50;100.00
6829;BME280;17930;48.592;8.868;2023-03-03T02:11:50;96959.50;;;-1.54;100.00
6829;BME280;17930;48.592;8.868;2023-03-03T02:14:19;96944.44;;;-1.36;100.00
6829;BME280;17930;48.592;8.868;2023-03-03T02:16:46;96946.03;;;-1.22;100.00
6829;BME280;17930;48.592;8.868;2023-03-03T02:19:19;96940.53;;;-1.19;100.00
6829;BME280;17930;48.592;8.868;2023-03-03T02:21:48;96941.69;;;-1.35;100.00
6829;BME280;17930;48.592;8.868;2023-03-03T02:24:22;96941.84;;;-1.49;100.00
6829;BME280;17930;48.592;8.868;2023-03-03T02:26:52;96926.38;;;-1.28;100.00
6829;BME280;17930;48.592;8.868;2023-03-03T02:29:19;96941.50;;;-1.33;100.00
6829;BME280;17930;48.592;8.868;2023-03-03T02:31:45;96942.66;;;-1.42;100.00
6829;BME280;17930;48.592;8.868;2023-03-03T02:34:12;96940.25;;;-1.50;100.00
6829;BME280;17930;48.592;8.868;2023-03-03T02:36:39;96933.75;;;-1.59;100.00
6829;BME280;17930;48.592;8.868;2023-03-03T02:39:08;96937.66;;;-1.69;100.00
6829;BME280;17930;48.592;8.868;2023-03-03T02:41:39;96936.41;;;-1.80;100.00
6829;BME280;17930;48.592;8.868;2023-03-03T02:44:11;96937.22;;;-1.79;100.00
6829;BME280;17930;48.592;8.868;2023-03-03T02:46:40;96935.22;;;-1.84;100.00
6829;BME280;17930;48.592;8.868;2023-03-03T02:49:08;96931.63;;;-1.96;100.00
6829;BME280;17930;48.592;8.868;2023-03-03T02:51:35;96929.22;;;-2.04;100.00
6829;BME280;17930;48.592;8.868;2023-03-03T02:54:02;96932.78;;;-2.04;100.00
6829;BME280;17930;48.592;8.868;2023-03-03T02:56:29;96939.06;;;-2.07;100.00
6829;BME280;17930;48.592;8.868;2023-03-03T02:58:57;96935.72;;;-2.07;100.00
6829;BME280;17930;48.592;8.868;2023-03-03T03:01:25;96941.09;;;-1.90;100.00
6829;BME280;17930;48.592;8.868;2023-03-03T03:03:51;96936.03;;;-1.83;100.00
6829;BME280;17930;48.592;8.868;2023-03-03T03:06:19;96930.97;;;-1.64;100.00
6829;BME280;17930;48.592;8.868;2023-03-03T03:08:46;96936.94;;;-1.44;100.00
6829;BME280;17930;48.592;8.868;2023-03-03T03:11:12;96936.19;;;-1.32;100.00
6829;BME280;17930;48.592;8.868;2023-03-03T03:13:39;96931.66;;;-1.23;100.00
6829;BME280;17930;48.592;8.868;2023-03-03T03:16:06;96934.25;;;-1.10;100.00
6829;BME280;17930;48.592;8.868;2023-03-03T03:18:34;96932.72;;;-0.99;100.00
6829;BME280;17930;48.592;8.868;2023-03-03T03:21:08;96936.66;;;-0.83;100.00
6829;BME280;17930;48.592;8.868;2023-03-03T03:23:36;96936.25;;;-0.67;100.00
6829;BME280;17930;48.592;8.868;2023-03-03T03:26:04;96931.50;;;-0.51;100.00
6829;BME280;17930;48.592;8.868;2023-03-03T03:28:31;96924.41;;;-0.43;100.00
6829;BME280;17930;48.592;8.868;2023-03-03T03:30:58;96932.28;;;-0.31;100.00
6829;BME280;17930;48.592;8.868;2023-03-03T03:33:25;96930.31;;;-0.29;100.00
6829;BME280;17930;48.592;8.868;2023-03-03T03:35:53;96928.72;;;-0.24;100.00
6829;BME280;17930;48.592;8.868;2023-03-03T03:38:21;96928.69;;;-0.17;100.00
6829;BME280;17930;48.592;8.868;2023-03-03T03:40:47;96922.78;;;-0.11;100.00
6829;BME280;17930;48.592;8.868;2023-03-03T03:43:14;96933.78;;;-0.04;100.00
6829;BME280;17930;48.592;8.868;2023-03-03T03:45:41;96931.84;;;-0.02;100.00
6829;BME280;17930;48.592;8.868;2023-03-03T03:48:08;96933.38;;;-0.02;100.00
6829;BME280;17930;48.592;8.868;2023-03-03T03:50:34;96941.69;;;0.00;100.00
6829;BME280;17930;48.592;8.868;2023-03-03T03:53:03;96941.28;;;0.03;100.00
6829;BME280;17930;48.592;8.868;2023-03-03T03:55:36;96938.88;;;0.08;100.00
6829;BME280;17930;48.592;8.868;2023-03-03T03:58:13;96932.97;;;0.14;100.00
6829;BME280;17930;48.592;8.868;2023-03-03T04:00:42;96925.03;;;0.22;100.00
6829;BME280;17930;48.592;8.868;2023-03-03T04:03:09;96934.09;;;0.31;100.00
6829;BME280;17930;48.592;8.868;2023-03-03T04:05:36;96931.69;;;0.36;100.00
6829;BME280;17930;48.592;8.868;2023-03-03T04:08:04;96927.72;;;0.40;100.00
6829;BME280;17930;48.592;8.868;2023-03-03T04:10:32;96933.22;;;0.44;100.00
6829;BME280;17930;48.592;8.868;2023-03-03T04:12:58;96937.09;;;0.59;100.00
6829;BME280;17930;48.592;8.868;2023-03-03T04:15:25;96943.19;;;0.64;100.00
6829;BME280;17930;48.592;8.868;2023-03-03T04:17:52;96932.72;;;0.66;100.00
6829;BME280;17930;48.592;8.868;2023-03-03T04:20:19;96933.31;;;0.68;100.00
6829;BME280;17930;48.592;8.868;2023-03-03T04:22:45;96929.09;;;0.80;100.00
6829;BME280;17930;48.592;8.868;2023-03-03T04:25:14;96925.38;;;0.76;100.00
6829;BME280;17930;48.592;8.868;2023-03-03T04:27:42;96921.22;;;0.75;100.00
6829;BME280;17930;48.592;8.868;2023-03-03T04:30:11;96928.53;;;0.78;100.00
6829;BME280;17930;48.592;8.868;2023-03-03T04:32:38;96932.25;;;0.82;100.00
6829;BME280;17930;48.592;8.868;2023-03-03T04:35:06;96936.38;;;0.83;100.00
6829;BME280;17930;48.592;8.868;2023-03-03T04:37:33;96934.94;;;0.93;100.00
6829;BME280;17930;48.592;8.868;2023-03-03T04:40:00;96934.56;;;0.90;100.00
6829;BME280;17930;48.592;8.868;2023-03-03T04:42:28;96933.75;;;0.96;100.00
6829;BME280;17930;48.592;8.868;2023-03-03T04:44:54;96935.88;;;0.99;100.00
6829;BME280;17930;48.592;8.868;2023-03-03T04:47:21;96934.47;;;1.02;100.00
6829;BME280;17930;48.592;8.868;2023-03-03T04:49:47;96941.63;;;1.01;100.00
6829;BME280;17930;48.592;8.868;2023-03-03T04:52:14;96940.03;;;1.00;100.00
6829;BME280;17930;48.592;8.868;2023-03-03T04:54:41;96941.88;;;1.17;100.00
6829;BME280;17930;48.592;8.868;2023-03-03T04:57:07;96948.63;;;1.11;100.00
6829;BME280;17930;48.592;8.868;2023-03-03T04:59:35;96946.13;;;1.05;100.00
6829;BME280;17930;48.592;8.868;2023-03-03T05:02:02;96941.03;;;1.23;100.00
6829;BME280;17930;48.592;8.868;2023-03-03T05:04:29;96947.44;;;1.14;100.00
6829;BME280;17930;48.592;8.868;2023-03-03T05:06:56;96941.44;;;1.26;100.00
6829;BME280;17930;48.592;8.868;2023-03-03T05:09:23;96947.50;;;1.07;100.00
6829;BME280;17930;48.592;8.868;2023-03-03T05:11:50;96948.31;;;1.01;100.00
6829;BME280;17930;48.592;8.868;2023-03-03T05:14:17;96944.66;;;1.15;100.00
6829;BME280;17930;48.592;8.868;2023-03-03T05:16:46;96953.34;;;1.14;100.00
6829;BME280;17930;48.592;8.868;2023-03-03T05:19:15;96963.38;;;0.92;100.00
6829;BME280;17930;48.592;8.868;2023-03-03T05:21:47;96961.41;;;0.94;100.00
6829;BME280;17930;48.592;8.868;2023-03-03T05:24:13;96960.59;;;0.93;100.00
6829;BME280;17930;48.592;8.868;2023-03-03T05:26:41;96964.75;;;0.94;100.00
6829;BME280;17930;48.592;8.868;2023-03-03T05:29:08;96965.38;;;0.90;100.00
6829;BME280;17930;48.592;8.868;2023-03-03T05:31:34;96961.34;;;1.00;100.00
6829;BME280;17930;48.592;8.868;2023-03-03T05:34:02;96959.81;;;0.93;100.00
6829;BME280;17930;48.592;8.868;2023-03-03T05:36:29;96962.81;;;0.90;100.00
6829;BME280;17930;48.592;8.868;2023-03-03T05:38:56;96972.50;;;0.81;100.00
6829;BME280;17930;48.592;8.868;2023-03-03T05:41:22;96970.38;;;0.78;100.00
6829;BME280;17930;48.592;8.868;2023-03-03T05:43:49;96973.91;;;0.77;100.00
6829;BME280;17930;48.592;8.868;2023-03-03T05:46:16;96980.41;;;0.80;100.00
6829;BME280;17930;48.592;8.868;2023-03-03T05:48:42;96971.91;;;0.86;100.00
6829;BME280;17930;48.592;8.868;2023-03-03T05:51:11;96974.22;;;0.94;100.00
6829;BME280;17930;48.592;8.868;2023-03-03T05:53:37;96970.63;;;1.01;100.00
6829;BME280;17930;48.592;8.868;2023-03-03T05:56:04;96977.16;;;0.97;100.00
6829;BME280;17930;48.592;8.868;2023-03-03T05:58:31;96984.28;;;0.95;100.00
6829;BME280;17930;48.592;8.868;2023-03-03T06:00:58;96981.66;;;1.39;100.00
6829;BME280;17930;48.592;8.868;2023-03-03T06:03:24;96977.47;;;1.44;100.00
6829;BME280;17930;48.592;8.868;2023-03-03T06:05:51;96984.41;;;1.37;100.00
6829;BME280;17930;48.592;8.868;2023-03-03T06:08:21;96981.53;;;1.52;100.00
6829;BME280;17930;48.592;8.868;2023-03-03T06:10:48;96985.34;;;1.43;100.00
6829;BME280;17930;48.592;8.868;2023-03-03T06:13:15;96988.06;;;1.23;100.00
6829;BME280;17930;48.592;8.868;2023-03-03T06:15:42;96985.75;;;1.15;100.00
6829;BME280;17930;48.592;8.868;2023-03-03T06:18:09;96983.72;;;1.48;100.00
6829;BME280;17930;48.592;8.868;2023-03-03T06:20:35;96987.97;;;1.36;100.00
6829;BME280;17930;48.592;8.868;2023-03-03T06:23:03;96994.09;;;1.35;100.00
6829;BME280;17930;48.592;8.868;2023-03-03T06:25:31;96995.50;;;1.31;100.00
6829;BME280;17930;48.592;8.868;2023-03-03T06:28:00;97005.63;;;1.57;100.00
6829;BME280;17930;48.592;8.868;2023-03-03T06:30:26;97003.28;;;1.49;100.00
6829;BME280;17930;48.592;8.868;2023-03-03T06:32:55;97008.19;;;1.57;100.00
6829;BME280;17930;48.592;8.868;2023-03-03T06:35:21;97010.31;;;1.84;100.00
6829;BME280;17930;48.592;8.868;2023-03-03T06:37:48;97012.94;;;1.78;100.00
6829;BME280;17930;48.592;8.868;2023-03-03T06:40:16;97016.63;;;1.64;100.00
6829;BME280;17930;48.592;8.868;2023-03-03T06:42:44;97011.44;;;1.70;100.00
6829;BME280;17930;48.592;8.868;2023-03-03T06:45:11;97021.59;;;1.59;100.00
6829;BME280;17930;48.592;8.868;2023-03-03T06:47:37;97013.16;;;1.52;100.00
6829;BME280;17930;48.592;8.868;2023-03-03T06:50:05;97026.16;;;1.57;100.00
6829;BME280;17930;48.592;8.868;2023-03-03T06:52:31;97024.91;;;1.66;100.00
6829;BME280;17930;48.592;8.868;2023-03-03T06:55:00;97020.28;;;1.74;100.00
6829;BME280;17930;48.592;8.868;2023-03-03T06:57:29;97033.09;;;1.81;100.00
6829;BME280;17930;48.592;8.868;2023-03-03T07:00:05;97040.75;;;1.87;100.00
6829;BME280;17930;48.592;8.868;2023-03-03T07:02:36;97043.97;;;2.01;100.00
6829;BME280;17930;48.592;8.868;2023-03-03T07:05:06;97041.84;;;1.98;100.00
6829;BME280;17930;48.592;8.868;2023-03-03T07:07:36;97040.38;;;2.08;100.00
6829;BME280;17930;48.592;8.868;2023-03-03T07:10:10;97042.22;;;2.43;100.00
6829;BME280;17930;48.592;8.868;2023-03-03T07:12:38;97036.13;;;2.73;100.00
6829;BME280;17930;48.592;8.868;2023-03-03T07:15:15;97043.91;;;2.67;100.00
6829;BME280;17930;48.592;8.868;2023-03-03T07:17:44;97044.94;;;2.66;100.00
6829;BME280;17930;48.592;8.868;2023-03-03T07:20:20;97043.84;;;2.55;100.00
6829;BME280;17930;48.592;8.868;2023-03-03T07:22:47;97052.09;;;2.46;100.00
6829;BME280;17930;48.592;8.868;2023-03-03T07:25:20;97054.50;;;2.41;100.00
6829;BME280;17930;48.592;8.868;2023-03-03T07:27:47;97053.28;;;2.44;100.00
6829;BME280;17930;48.592;8.868;2023-03-03T07:30:24;97063.31;;;2.52;100.00
6829;BME280;17930;48.592;8.868;2023-03-03T07:32:52;97062.06;;;2.54;100.00
6829;BME280;17930;48.592;8.868;2023-03-03T07:35:31;97062.22;;;2.77;100.00
6829;BME280;17930;48.592;8.868;2023-03-03T07:38:02;97055.09;;;2.79;100.00
6829;BME280;17930;48.592;8.868;2023-03-03T07:40:34;97056.44;;;2.81;100.00
6829;BME280;17930;48.592;8.868;2023-03-03T07:43:20;97061.38;;;2.83;100.00
6829;BME280;17930;48.592;8.868;2023-03-03T07:45:57;97065.50;;;3.02;100.00
6829;BME280;17930;48.592;8.868;2023-03-03T07:48:30;97066.25;;;3.38;100.00
6829;BME280;17930;48.592;8.868;2023-03-03T07:51:03;97061.44;;;3.23;100.00
6829;BME280;17930;48.592;8.868;2023-03-03T07:53:33;97072.81;;;3.34;100.00
6829;BME280;17930;48.592;8.868;2023-03-03T07:56:03;97066.25;;;3.38;100.00
6829;BME280;17930;48.592;8.868;2023-03-03T07:58:37;97074.44;;;3.46;100.00
6829;BME280;17930;48.592;8.868;2023-03-03T08:01:34;97070.22;;;3.63;100.00
6829;BME280;17930;48.592;8.868;2023-03-03T08:04:11;97061.75;;;3.74;100.00
6829;BME280;17930;48.592;8.868;2023-03-03T08:06:45;97073.63;;;3.75;100.00
6829;BME280;17930;48.592;8.868;2023-03-03T08:09:28;97058.84;;;3.82;100.00
6829;BME280;17930;48.592;8.868;2023-03-03T08:11:58;97055.94;;;3.90;100.00
6829;BME280;17930;48.592;8.868;2023-03-03T08:14:29;97048.66;;;4.21;100.00
6829;BME280;17930;48.592;8.868;2023-03-03T08:16:58;97053.94;;;4.37;100.00
6829;BME280;17930;48.592;8.868;2023-03-03T08:19:26;97056.38;;;4.78;100.00
6829;BME280;17930;48.592;8.868;2023-03-03T08:21:57;97060.75;;;4.89;100.00
6829;BME280;17930;48.592;8.868;2023-03-03T08:24:26;97060.19;;;5.26;100.00
6829;BME280;17930;48.592;8.868;2023-03-03T08:26:52;97063.00;;;5.24;100.00
6829;BME280;17930;48.592;8.868;2023-03-03T08:29:19;97068.66;;;5.10;100.00
6829;BME280;17930;48.592;8.868;2023-03-03T08:31:47;97068.94;;;5.25;100.00
6829;BME280;17930;48.592;8.868;2023-03-03T08:34:18;97069.19;;;5.23;100.00
6829;BME280;17930;48.592;8.868;2023-03-03T08:36:45;97059.38;;;5.53;100.00
6829;BME280;17930;48.592;8.868;2023-03-03T08:39:12;97059.88;;;5.78;100.00
6829;BME280;17930;48.592;8.868;2023-03-03T08:41:38;97060.94;;;5.82;100.00
6829;BME280;17930;48.592;8.868;2023-03-03T08:44:08;97064.25;;;5.94;100.00
6829;BME280;17930;48.592;8.868;2023-03-03T08:46:35;97068.91;;;6.08;100.00
6829;BME280;17930;48.592;8.868;2023-03-03T08:49:02;97061.75;;;6.15;100.00
6829;BME280;17930;48.592;8.868;2023-03-03T08:51:30;97065.03;;;6.43;100.00
6829;BME280;17930;48.592;8.868;2023-03-03T08:53:58;97069.59;;;6.36;100.00
6829;BME280;17930;48.592;8.868;2023-03-03T08:56:26;97068.13;;;6.08;100.00
6829;BME280;17930;48.592;8.868;2023-03-03T08:58:53;97074.63;;;6.26;100.00
6829;BME280;17930;48.592;8.868;2023-03-03T09:01:20;97070.34;;;6.53;100.00
6829;BME280;17930;48.592;8.868;2023-03-03T09:03:46;97068.13;;;7.20;100.00
6829;BME280;17930;48.592;8.868;2023-03-03T09:06:13;97063.16;;;7.40;100.00
6829;BME280;17930;48.592;8.868;2023-03-03T09:08:41;97065.22;;;7.64;100.00
6829;BME280;17930;48.592;8.868;2023-03-03T09:11:09;97067.50;;;7.87;100.00
6829;BME280;17930;48.592;8.868;2023-03-03T09:13:36;97070.09;;;7.87;100.00
6829;BME280;17930;48.592;8.868;2023-03-03T09:16:10;97063.50;;;8.32;100.00
6829;BME280;17930;48.592;8.868;2023-03-03T09:18:39;97063.06;;;9.52;100.00
6829;BME280;17930;48.592;8.868;2023-03-03T09:21:19;97056.41;;;10.16;100.00
6829;BME280;17930;48.592;8.868;2023-03-03T09:23:52;97065.72;;;9.92;100.00
6829;BME280;17930;48.592;8.868;2023-03-03T09:26:25;97072.03;;;9.96;100.00
6829;BME280;17930;48.592;8.868;2023-03-03T09:28:55;97069.34;;;9.76;100.00
6829;BME280;17930;48.592;8.868;2023-03-03T09:31:26;97069.66;;;9.99;100.00
6829;BME280;17930;48.592;8.868;2023-03-03T09:33:55;97075.66;;;10.34;100.00
6829;BME280;17930;48.592;8.868;2023-03-03T09:36:25;97078.72;;;9.87;100.00
6829;BME280;17930;48.592;8.868;2023-03-03T09:38:54;97070.44;;;10.05;100.00
6829;BME280;17930;48.592;8.868;2023-03-03T09:45:03;97080.06;;;9.94;100.00
6829;BME280;17930;48.592;8.868;2023-03-03T09:47:43;97077.16;;;9.76;100.00
6829;BME280;17930;48.592;8.868;2023-03-03T09:50:25;97079.25;;;9.84;100.00
6829;BME280;17930;48.592;8.868;2023-03-03T09:53:04;97076.16;;;9.92;100.00
6829;BME280;17930;48.592;8.868;2023-03-03T09:55:40;97081.59;;;9.80;100.00
6829;BME280;17930;48.592;8.868;2023-03-03T09:58:33;97083.22;;;10.06;100.00
6829;BME280;17930;48.592;8.868;2023-03-03T10:01:15;97078.72;;;9.77;100.00
6829;BME280;17930;48.592;8.868;2023-03-03T10:03:59;97077.84;;;9.42;100.00
6829;BME280;17930;48.592;8.868;2023-03-03T10:06:55;97083.13;;;8.96;100.00
6829;BME280;17930;48.592;8.868;2023-03-03T10:09:45;97077.41;;;9.69;100.00
6829;BME280;17930;48.592;8.868;2023-03-03T10:12:25;97072.81;;;10.36;100.00
6829;BME280;17930;48.592;8.868;2023-03-03T10:15:07;97076.06;;;11.01;100.00
6829;BME280;17930;48.592;8.868;2023-03-03T10:17:46;97077.16;;;10.85;100.00
6829;BME280;17930;48.592;8.868;2023-03-03T10:20:34;97082.13;;;10.86;100.00
6829;BME280;17930;48.592;8.868;2023-03-03T10:23:14;97077.88;;;12.11;100.00
6829;BME280;17930;48.592;8.868;2023-03-03T10:25:55;97074.25;;;13.43;100.00
6829;BME280;17930;48.592;8.868;2023-03-03T10:28:44;97075.72;;;12.51;96.70
6829;BME280;17930;48.592;8.868;2023-03-03T10:31:24;97084.63;;;11.79;99.22
6829;BME280;17930;48.592;8.868;2023-03-03T10:33:58;97078.09;;;12.15;100.00
6829;BME280;17930;48.592;8.868;2023-03-03T10:36:45;97087.88;;;11.61;100.00
6829;BME280;17930;48.592;8.868;2023-03-03T10:39:31;97085.69;;;12.16;100.00
6829;BME280;17930;48.592;8.868;2023-03-03T10:42:14;97080.63;;;12.29;100.00
6829;BME280;17930;48.592;8.868;2023-03-03T10:45:05;97080.91;;;11.85;97.35
6829;BME280;17930;48.592;8.868;2023-03-03T10:47:48;97091.13;;;11.86;98.31
6829;BME280;17930;48.592;8.868;2023-03-03T10:50:24;97085.38;;;12.23;94.38
6829;BME280;17930;48.592;8.868;2023-03-03T10:52:59;97084.00;;;12.63;93.61
6829;BME280;17930;48.592;8.868;2023-03-03T10:55:36;97089.94;;;12.40;93.03
6829;BME280;17930;48.592;8.868;2023-03-03T11:01:13;97085.84;;;12.29;89.96
6829;BME280;17930;48.592;8.868;2023-03-03T11:06:48;97076.41;;;12.62;88.56
6829;BME280;17930;48.592;8.868;2023-03-03T11:09:31;97071.63;;;12.40;86.00
6829;BME280;17930;48.592;8.868;2023-03-03T11:12:08;97068.22;;;13.98;86.49
6829;BME280;17930;48.592;8.868;2023-03-03T11:14:44;97065.13;;;14.46;78.46
6829;BME280;17930;48.592;8.868;2023-03-03T11:17:19;97063.97;;;14.38;79.79
6829;BME280;17930;48.592;8.868;2023-03-03T11:20:00;97057.50;;;14.49;78.75
6829;BME280;17930;48.592;8.868;2023-03-03T11:22:41;97060.38;;;14.16;78.77
6829;BME280;17930;48.592;8.868;2023-03-03T11:25:24;97057.78;;;14.61;77.07
6829;BME280;17930;48.592;8.868;2023-03-03T11:28:09;97067.22;;;13.57;79.70
6829;BME280;17930;48.592;8.868;2023-03-03T11:30:49;97058.25;;;13.22;80.84
6829;BME280;17930;48.592;8.868;2023-03-03T11:33:25;97056.31;;;13.87;80.98
6829;BME280;17930;48.592;8.868;2023-03-03T11:36:09;97053.53;;;14.33;77.74
6829;BME280;17930;48.592;8.868;2023-03-03T11:38:53;97047.34;;;14.43;78.75
6829;BME280;17930;48.592;8.868;2023-03-03T11:41:29;97045.53;;;14.70;77.64
6829;BME280;17930;48.592;8.868;2023-03-03T11:44:02;97042.03;;;15.68;72.05
6829;BME280;17930;48.592;8.868;2023-03-03T11:46:34;97039.22;;;16.22;71.48
6829;BME280;17930;48.592;8.868;2023-03-03T11:49:05;97035.53;;;15.66;69.76
6829;BME280;17930;48.592;8.868;2023-03-03T11:51:40;97035.91;;;15.94;71.48
6829;BME280;17930;48.592;8.868;2023-03-03T11:54:16;97035.38;;;15.84;67.43
6829;BME280;17930;48.592;8.868;2023-03-03T11:56:46;97028.66;;;15.16;68.69
6829;BME280;17930;48.592;8.868;2023-03-03T11:59:24;97026.09;;;14.71;69.88
6829;BME280;17930;48.592;8.868;2023-03-03T12:01:56;97021.19;;;14.38;70.61
6829;BME280;17930;48.592;8.868;2023-03-03T12:04:31;97024.25;;;14.58;71.10
6829;BME280;17930;48.592;8.868;2023-03-03T12:07:16;97025.28;;;14.44;70.68
6829;BME280;17930;48.592;8.868;2023-03-03T12:09:56;97011.75;;;13.87;72.05
6829;BME280;17930;48.592;8.868;2023-03-03T12:12:32;97019.66;;;13.50;72.80
6829;BME280;17930;48.592;8.868;2023-03-03T12:15:08;97024.22;;;13.95;73.67
6829;BME280;17930;48.592;8.868;2023-03-03T12:17:53;97015.16;;;13.87;70.86
6829;BME280;17930;48.592;8.868;2023-03-03T12:20:28;97024.72;;;13.24;72.06
6829;BME280;17930;48.592;8.868;2023-03-03T12:23:07;97018.44;;;13.61;72.28
6829;BME280;17930;48.592;8.868;2023-03-03T12:25:39;97018.38;;;13.66;71.55
6829;BME280;17930;48.592;8.868;2023-03-03T12:28:10;97024.03;;;13.73;72.19
6829;BME280;17930;48.592;8.868;2023-03-03T12:30:56;97006.22;;;14.52;70.89
6829;BME280;17930;48.592;8.868;2023-03-03T12:33:34;97011.06;;;14.32;69.62
6829;BME280;17930;48.592;8.868;2023-03-03T12:36:13;97014.97;;;14.47;69.54
6829;BME280;17930;48.592;8.868;2023-03-03T12:38:47;97009.19;;;15.31;68.57
6829;BME280;17930;48.592;8.868;2023-03-03T12:41:19;97000.09;;;16.89;64.26
6829;BME280;17930;48.592;8.868;2023-03-03T12:43:55;96998.28;;;17.70;59.96
6829;BME280;17930;48.592;8.868;2023-03-03T12:46:31;96989.22;;;18.39;59.75
6829;BME280;17930;48.592;8.868;2023-03-03T12:49:00;96997.50;;;18.29;57.53
6829;BME280;17930;48.592;8.868;2023-03-03T12:51:46;96990.56;;;19.36;56.07
6829;BME280;17930;48.592;8.868;2023-03-03T12:54:30;96987.41;;;18.76;54.89
6829;BME280;17930;48.592;8.868;2023-03-03T12:57:06;96989.78;;;18.69;55.01
6829;BME280;17930;48.592;8.868;2023-03-03T12:59:39;96986.69;;;19.04;55.29
6829;BME280;17930;48.592;8.868;2023-03-03T13:02:44;96989.03;;;19.75;54.17
6829;BME280;17930;48.592;8.868;2023-03-03T13:05:19;96995.16;;;18.81;52.82
6829;BME280;17930;48.592;8.868;2023-03-03T13:07:56;96990.97;;;19.17;53.84
6829;BME280;17930;48.592;8.868;2023-03-03T13:10:34;96991.22;;;19.04;54.12
6829;BME280;17930;48.592;8.868;2023-03-03T13:13:08;96991.38;;;19.56;53.02
6829;BME280;17930;48.592;8.868;2023-03-03T13:15:43;96997.69;;;19.44;52.41
6829;BME280;17930;48.592;8.868;2023-03-03T13:18:27;96986.56;;;19.30;53.55
6829;BME280;17930;48.592;8.868;2023-03-03T13:20:59;96999.78;;;19.99;51.79
6829;BME280;17930;48.592;8.868;2023-03-03T13:23:41;96990.34;;;19.69;51.76
6829;BME280;17930;48.592;8.868;2023-03-03T13:26:12;96988.78;;;19.68;51.57
6829;BME280;17930;48.592;8.868;2023-03-03T13:28:53;96988.56;;;20.14;49.94
6829;BME280;17930;48.592;8.868;2023-03-03T13:31:23;96985.56;;;20.04;49.20
6829;BME280;17930;48.592;8.868;2023-03-03T13:33:58;96979.16;;;19.84;50.37
6829;BME280;17930;48.592;8.868;2023-03-03T13:36:29;96984.81;;;19.05;51.48
6829;BME280;17930;48.592;8.868;2023-03-03T13:39:07;96988.38;;;19.09;50.42
6829;BME280;17930;48.592;8.868;2023-03-03T13:41:42;96985.44;;;19.31;50.66